Time;durP1;ratioP1;P1;durP2;ratioP2;P2;SDS_P1;SDS_P2;PMS_P1;PMS_P2;Temp;Humidity;BMP_temperature;BMP_pressure;BME280_temperature;BME280_humidity;BME280_pressure;Samples;Min_cycle;Max_cycle;Signal;HPM_P1;HPM_P2
2024/02/25 00:02:23;;;;;;;0.20;0.10;;;;;;;;;;4961363;28;20060;-78
2024/02/25 00:04:49;;;;;;;0.20;0.10;;;;;;;;;;4958779;28;20058;-79
2024/02/25 00:07:15;;;;;;;0.20;0.10;;;;;;;;;;4989939;28;20066;-79
2024/02/25 00:09:41;;;;;;;0.20;0.10;;;;;;;;;;4964193;28;20078;-79
2024/02/25 00:12:08;;;;;;;0.20;0.10;;;;;;;;;;4981015;28;20079;-79
2024/02/25 00:14:34;;;;;;;0.20;0.10;;;;;;;;;;4992200;28;20077;-80
2024/02/25 00:17:00;;;;;;;0.20;0.10;;;;;;;;;;4977079;28;20044;-79
2024/02/25 00:19:29;;;;;;;0.20;0.10;;;;;;;;;;4988981;28;20042;-79
2024/02/25 00:21:55;;;;;;;0.20;0.10;;;;;;;;;;4984758;28;20073;-80
2024/02/25 00:24:22;;;;;;;0.20;0.10;;;;;;;;;;4982172;28;20030;-80
2024/02/25 00:26:48;;;;;;;0.20;0.10;;;;;;;;;;4967398;28;20056;-80
2024/02/25 00:29:15;;;;;;;0.30;0.30;;;;;;;;;;4978043;28;20459;-79
2024/02/25 00:31:44;;;;;;;0.57;0.32;;;;;;;;;;4999919;28;20046;-79
2024/02/25 00:34:10;;;;;;;0.20;0.00;;;;;;;;;;4982483;28;20494;-79
2024/02/25 00:36:38;;;;;;;0.20;0.20;;;;;;;;;;4970993;28;20034;-80
2024/02/25 00:39:04;;;;;;;0.20;0.00;;;;;;;;;;4978914;28;20117;-79
2024/02/25 00:41:30;;;;;;;0.20;0.10;;;;;;;;;;4957888;28;20503;-82
2024/02/25 00:43:56;;;;;;;0.20;0.10;;;;;;;;;;4979155;28;20042;-80
2024/02/25 00:46:23;;;;;;;0.20;0.00;;;;;;;;;;4978674;28;20076;-80
2024/02/25 00:48:49;;;;;;;0.20;0.10;;;;;;;;;;4995770;28;20097;-79
2024/02/25 00:51:15;;;;;;;2.15;0.57;;;;;;;;;;4995627;28;20531;-80
2024/02/25 00:53:41;;;;;;;0.20;0.10;;;;;;;;;;4970335;28;20031;-80
2024/02/25 00:56:07;;;;;;;0.20;0.10;;;;;;;;;;4984969;28;20084;-78
2024/02/25 00:58:35;;;;;;;0.20;0.10;;;;;;;;;;4984124;28;20039;-79
2024/02/25 01:01:02;;;;;;;0.20;0.10;;;;;;;;;;4994460;28;20453;-80
2024/02/25 01:03:28;;;;;;;0.40;0.30;;;;;;;;;;4996753;28;21159;-80
2024/02/25 01:05:54;;;;;;;0.95;0.38;;;;;;;;;;4993737;28;20038;-79
2024/02/25 01:08:20;;;;;;;0.20;0.10;;;;;;;;;;5003882;28;20034;-80
2024/02/25 01:10:46;;;;;;;0.40;0.30;;;;;;;;;;4994801;28;20038;-80
2024/02/25 01:13:14;;;;;;;0.28;0.17;;;;;;;;;;4961252;28;20038;-80
2024/02/25 01:15:40;;;;;;;0.20;0.10;;;;;;;;;;4979574;28;20034;-79
2024/02/25 01:18:06;;;;;;;0.20;0.10;;;;;;;;;;4984705;28;20042;-79
2024/02/25 01:20:32;;;;;;;0.20;0.10;;;;;;;;;;4971032;28;20167;-79
2024/02/25 01:23:00;;;;;;;0.20;0.00;;;;;;;;;;4969441;28;20106;-79
2024/02/25 01:25:26;;;;;;;0.20;0.10;;;;;;;;;;4973838;28;20047;-81
2024/02/25 01:27:52;;;;;;;0.20;0.10;;;;;;;;;;4982777;23;20043;-81
2024/02/25 01:30:18;;;;;;;0.20;0.10;;;;;;;;;;4961498;28;20074;-82
2024/02/25 01:32:44;;;;;;;0.20;0.00;;;;;;;;;;4972452;28;20597;-82
2024/02/25 01:35:13;;;;;;;0.20;0.10;;;;;;;;;;4975633;28;20042;-82
2024/02/25 01:37:39;;;;;;;0.20;0.10;;;;;;;;;;4971965;28;20034;-81
2024/02/25 01:40:06;;;;;;;0.20;0.10;;;;;;;;;;4976331;28;20073;-82
2024/02/25 01:42:32;;;;;;;0.20;0.10;;;;;;;;;;4983636;28;20046;-83
2024/02/25 01:44:59;;;;;;;0.20;0.05;;;;;;;;;;4994233;28;20046;-82
2024/02/25 01:47:26;;;;;;;0.20;0.10;;;;;;;;;;4977770;28;20061;-83
2024/02/25 01:49:52;;;;;;;0.20;0.10;;;;;;;;;;4989959;28;20041;-82
2024/02/25 01:52:19;;;;;;;0.20;0.10;;;;;;;;;;4986926;28;20038;-82
2024/02/25 01:54:45;;;;;;;0.20;0.00;;;;;;;;;;4990846;28;20091;-82
2024/02/25 01:57:12;;;;;;;0.20;0.10;;;;;;;;;;4970404;28;20045;-82
2024/02/25 01:59:39;;;;;;;0.20;0.10;;;;;;;;;;4971452;28;20048;-82
2024/02/25 02:02:05;;;;;;;0.20;0.10;;;;;;;;;;4975338;28;20080;-82
2024/02/25 02:04:32;;;;;;;0.20;0.10;;;;;;;;;;4971473;28;20053;-82
2024/02/25 02:07:02;;;;;;;0.20;0.10;;;;;;;;;;4974509;28;20038;-82
2024/02/25 02:09:30;;;;;;;0.20;0.10;;;;;;;;;;4974005;28;20038;-82
2024/02/25 02:11:59;;;;;;;0.20;0.10;;;;;;;;;;4976695;28;20056;-83
2024/02/25 02:14:26;;;;;;;0.20;0.10;;;;;;;;;;4992432;28;20141;-80
2024/02/25 02:16:52;;;;;;;0.20;0.10;;;;;;;;;;4982062;28;20092;-82
2024/02/25 02:19:18;;;;;;;0.20;0.20;;;;;;;;;;4989713;28;20520;-82
2024/02/25 02:21:45;;;;;;;0.20;0.10;;;;;;;;;;4973704;28;20421;-83
2024/02/25 02:24:14;;;;;;;0.20;0.00;;;;;;;;;;4972281;28;20157;-84
2024/02/25 02:26:41;;;;;;;0.20;0.10;;;;;;;;;;4988787;28;20048;-82
2024/02/25 02:29:07;;;;;;;0.40;0.32;;;;;;;;;;4987658;28;20044;-83
2024/02/25 02:31:33;;;;;;;0.20;0.10;;;;;;;;;;4991665;28;20675;-83
2024/02/25 02:33:59;;;;;;;0.20;0.10;;;;;;;;;;4973008;28;20046;-81
2024/02/25 02:36:25;;;;;;;0.20;0.00;;;;;;;;;;4972092;28;20047;-83
2024/02/25 02:38:51;;;;;;;0.20;0.10;;;;;;;;;;4971901;28;20433;-81
2024/02/25 02:41:22;;;;;;;0.20;0.10;;;;;;;;;;4984008;28;20041;-83
2024/02/25 02:43:48;;;;;;;0.20;0.10;;;;;;;;;;4976963;28;20044;-84
2024/02/25 02:46:14;;;;;;;0.20;0.00;;;;;;;;;;5001638;28;20046;-83
2024/02/25 02:48:40;;;;;;;0.20;0.10;;;;;;;;;;4991211;28;20049;-83
2024/02/25 02:51:06;;;;;;;0.20;0.00;;;;;;;;;;4978896;28;20038;-81
2024/02/25 02:53:32;;;;;;;0.20;0.10;;;;;;;;;;4982460;28;20239;-82
2024/02/25 02:55:58;;;;;;;0.20;0.10;;;;;;;;;;4987816;28;20100;-84
2024/02/25 02:58:24;;;;;;;0.20;0.10;;;;;;;;;;4979450;28;20033;-81
2024/02/25 03:00:50;;;;;;;0.20;0.10;;;;;;;;;;4987088;28;20080;-84
2024/02/25 03:03:16;;;;;;;0.20;0.10;;;;;;;;;;4984943;28;20049;-80
2024/02/25 03:05:43;;;;;;;0.20;0.10;;;;;;;;;;4969762;28;20042;-82
2024/02/25 03:08:09;;;;;;;0.20;0.10;;;;;;;;;;4991052;28;20048;-84
2024/02/25 03:10:36;;;;;;;0.20;0.10;;;;;;;;;;4976011;28;20073;-81
2024/02/25 03:13:02;;;;;;;0.28;0.15;;;;;;;;;;4980987;28;20401;-80
2024/02/25 03:15:28;;;;;;;0.20;0.10;;;;;;;;;;4975505;28;20941;-83
2024/02/25 03:17:54;;;;;;;0.20;0.20;;;;;;;;;;5009031;28;20038;-82
2024/02/25 03:20:20;;;;;;;0.20;0.00;;;;;;;;;;4990448;28;20034;-83
2024/02/25 03:22:46;;;;;;;0.20;0.10;;;;;;;;;;4978540;28;20026;-81
2024/02/25 03:25:12;;;;;;;0.20;0.10;;;;;;;;;;4993597;28;20040;-81
2024/02/25 03:27:38;;;;;;;0.20;0.03;;;;;;;;;;4975161;28;20033;-82
2024/02/25 03:30:05;;;;;;;0.20;0.00;;;;;;;;;;4974158;28;20061;-81
2024/02/25 03:32:31;;;;;;;0.20;0.00;;;;;;;;;;4984289;28;20046;-81
2024/02/25 03:34:57;;;;;;;0.20;0.00;;;;;;;;;;4988870;28;20052;-80
2024/02/25 03:37:23;;;;;;;0.20;0.10;;;;;;;;;;4985033;28;20133;-80
2024/02/25 03:39:49;;;;;;;0.20;0.10;;;;;;;;;;4990675;28;20402;-83
2024/02/25 03:42:15;;;;;;;0.20;0.10;;;;;;;;;;4990792;28;20097;-82
2024/02/25 03:44:41;;;;;;;0.20;0.10;;;;;;;;;;4989557;28;20058;-82
2024/02/25 03:47:07;;;;;;;0.20;0.10;;;;;;;;;;4975605;28;20126;-81
2024/02/25 03:49:33;;;;;;;0.20;0.10;;;;;;;;;;4977656;28;20575;-83
2024/02/25 03:51:59;;;;;;;0.20;0.10;;;;;;;;;;4979143;28;20419;-81
2024/02/25 03:54:26;;;;;;;0.20;0.10;;;;;;;;;;4977066;28;20035;-82
2024/02/25 03:56:52;;;;;;;0.20;0.10;;;;;;;;;;4999383;28;20038;-82
2024/02/25 03:59:17;;;;;;;0.20;0.03;;;;;;;;;;4984286;28;20051;-82
2024/02/25 04:01:44;;;;;;;0.20;0.10;;;;;;;;;;4997083;28;20045;-80
2024/02/25 04:04:10;;;;;;;0.20;0.10;;;;;;;;;;4989049;28;20045;-82
2024/02/25 04:06:36;;;;;;;0.20;0.00;;;;;;;;;;4983455;28;20044;-82
2024/02/25 04:09:02;;;;;;;0.20;0.10;;;;;;;;;;4996075;28;20038;-82
2024/02/25 04:11:28;;;;;;;0.20;0.10;;;;;;;;;;4983505;28;20045;-81
2024/02/25 04:13:54;;;;;;;0.20;0.10;;;;;;;;;;4985355;28;20037;-84
2024/02/25 04:16:20;;;;;;;0.20;0.10;;;;;;;;;;4984345;28;20060;-82
2024/02/25 04:18:46;;;;;;;0.20;0.00;;;;;;;;;;4983103;28;20065;-81
2024/02/25 04:21:12;;;;;;;0.20;0.00;;;;;;;;;;4996791;28;20145;-81
2024/02/25 04:23:38;;;;;;;0.20;0.00;;;;;;;;;;4985364;28;20069;-80
2024/02/25 04:26:04;;;;;;;0.20;0.10;;;;;;;;;;4998994;28;20565;-82
2024/02/25 04:28:30;;;;;;;0.20;0.10;;;;;;;;;;4980724;28;20065;-81
2024/02/25 04:30:56;;;;;;;0.20;0.10;;;;;;;;;;4995152;28;20046;-83
2024/02/25 04:33:25;;;;;;;0.20;0.10;;;;;;;;;;4989630;28;20038;-82
2024/02/25 04:35:51;;;;;;;0.20;0.10;;;;;;;;;;4993362;28;20046;-82
2024/02/25 04:38:17;;;;;;;0.20;0.10;;;;;;;;;;4976557;28;20049;-83
2024/02/25 04:40:47;;;;;;;0.20;0.00;;;;;;;;;;4976260;28;20037;-83
2024/02/25 04:43:13;;;;;;;0.20;0.10;;;;;;;;;;4975459;28;20053;-82
2024/02/25 04:45:39;;;;;;;0.20;0.10;;;;;;;;;;4991924;28;20523;-81
2024/02/25 04:48:05;;;;;;;0.20;0.10;;;;;;;;;;4989507;28;20070;-82
2024/02/25 04:50:32;;;;;;;0.20;0.10;;;;;;;;;;4975506;28;20043;-81
2024/02/25 04:52:58;;;;;;;0.20;0.00;;;;;;;;;;4992099;28;20042;-81
2024/02/25 04:55:24;;;;;;;0.20;0.10;;;;;;;;;;4990732;28;20026;-82
2024/02/25 04:57:50;;;;;;;0.20;0.10;;;;;;;;;;4977291;28;20034;-82
2024/02/25 05:00:16;;;;;;;0.20;0.10;;;;;;;;;;4975682;28;20046;-82
2024/02/25 05:02:42;;;;;;;0.20;0.10;;;;;;;;;;4991329;28;20042;-82
2024/02/25 05:05:09;;;;;;;0.20;0.00;;;;;;;;;;4977817;28;20049;-81
2024/02/25 05:07:35;;;;;;;0.20;0.05;;;;;;;;;;4983100;28;20492;-82
2024/02/25 05:10:01;;;;;;;0.30;0.25;;;;;;;;;;4990507;28;20125;-81
2024/02/25 05:12:28;;;;;;;0.20;0.00;;;;;;;;;;4992180;28;20128;-83
2024/02/25 05:14:54;;;;;;;0.28;0.15;;;;;;;;;;4977375;28;20030;-81
2024/02/25 05:17:20;;;;;;;0.20;0.10;;;;;;;;;;4974173;28;20037;-81
2024/02/25 05:19:46;;;;;;;0.20;0.10;;;;;;;;;;4975161;28;20529;-83
2024/02/25 05:22:12;;;;;;;0.20;0.10;;;;;;;;;;4976053;28;20108;-81
2024/02/25 05:24:38;;;;;;;0.20;0.00;;;;;;;;;;4988637;28;20056;-81
2024/02/25 05:27:04;;;;;;;0.20;0.10;;;;;;;;;;4983232;28;20120;-83
2024/02/25 05:29:30;;;;;;;0.30;0.15;;;;;;;;;;4975657;28;20517;-81
2024/02/25 05:31:56;;;;;;;0.20;0.00;;;;;;;;;;4992450;28;20720;-81
2024/02/25 05:34:23;;;;;;;0.20;0.10;;;;;;;;;;4973713;28;20038;-82
2024/02/25 05:36:48;;;;;;;0.20;0.00;;;;;;;;;;4980220;28;20034;-82
2024/02/25 05:39:15;;;;;;;0.20;0.10;;;;;;;;;;4986682;28;20080;-82
2024/02/25 05:41:41;;;;;;;0.20;0.00;;;;;;;;;;4993257;28;20124;-81
2024/02/25 05:44:07;;;;;;;0.20;0.10;;;;;;;;;;4988860;28;20050;-82
2024/02/25 05:46:33;;;;;;;0.20;0.10;;;;;;;;;;4970593;28;20042;-81
2024/02/25 05:48:59;;;;;;;0.20;0.00;;;;;;;;;;4988880;28;20050;-83
2024/02/25 05:51:25;;;;;;;0.20;0.10;;;;;;;;;;4986260;28;20065;-80
2024/02/25 05:53:51;;;;;;;0.20;0.10;;;;;;;;;;4971232;28;20072;-82
2024/02/25 05:56:17;;;;;;;0.20;0.05;;;;;;;;;;4981561;28;20045;-81
2024/02/25 05:58:43;;;;;;;0.20;0.10;;;;;;;;;;4970994;28;20041;-82
2024/02/25 06:01:09;;;;;;;0.20;0.10;;;;;;;;;;4970261;28;20481;-81
2024/02/25 06:03:35;;;;;;;0.20;0.00;;;;;;;;;;4988909;28;20038;-81
2024/02/25 06:06:01;;;;;;;0.20;0.00;;;;;;;;;;4973605;28;20050;-82
2024/02/25 06:08:27;;;;;;;0.20;0.10;;;;;;;;;;4983151;28;20527;-81
2024/02/25 06:10:53;;;;;;;0.20;0.00;;;;;;;;;;4993585;28;20046;-81
2024/02/25 06:13:19;;;;;;;0.20;0.10;;;;;;;;;;4979183;28;20464;-83
2024/02/25 06:15:46;;;;;;;0.20;0.10;;;;;;;;;;4988891;28;20058;-82
2024/02/25 06:18:12;;;;;;;0.20;0.00;;;;;;;;;;4988267;28;20046;-82
2024/02/25 06:20:38;;;;;;;0.20;0.10;;;;;;;;;;4975531;28;20050;-82
2024/02/25 06:23:04;;;;;;;0.20;0.10;;;;;;;;;;4989090;28;20045;-81
2024/02/25 06:25:31;;;;;;;0.20;0.10;;;;;;;;;;4987807;28;20189;-81
2024/02/25 06:27:57;;;;;;;0.20;0.00;;;;;;;;;;4989311;28;20038;-82
2024/02/25 06:30:22;;;;;;;0.20;0.00;;;;;;;;;;4988165;28;20050;-81
2024/02/25 06:32:48;;;;;;;0.20;0.10;;;;;;;;;;4997837;28;20031;-81
2024/02/25 06:35:15;;;;;;;0.20;0.10;;;;;;;;;;4982635;28;20041;-81
2024/02/25 06:37:41;;;;;;;0.20;0.10;;;;;;;;;;4986696;28;20042;-81
2024/02/25 06:40:08;;;;;;;0.20;0.00;;;;;;;;;;4991602;28;20041;-81
2024/02/25 06:42:34;;;;;;;0.20;0.00;;;;;;;;;;4976561;28;20076;-80
2024/02/25 06:45:00;;;;;;;0.20;0.10;;;;;;;;;;4991330;28;20613;-80
2024/02/25 06:47:29;;;;;;;0.20;0.10;;;;;;;;;;4987312;28;20720;-81
2024/02/25 06:49:55;;;;;;;0.20;0.10;;;;;;;;;;4990395;28;20042;-81
2024/02/25 06:52:21;;;;;;;0.20;0.10;;;;;;;;;;4983972;28;20037;-82
2024/02/25 06:54:47;;;;;;;0.20;0.10;;;;;;;;;;4993018;28;20065;-81
2024/02/25 06:57:15;;;;;;;0.20;0.00;;;;;;;;;;4986264;28;20049;-82
2024/02/25 06:59:41;;;;;;;0.20;0.10;;;;;;;;;;4985449;28;20039;-81
2024/02/25 07:02:08;;;;;;;0.20;0.10;;;;;;;;;;4988798;28;20042;-82
2024/02/25 07:04:34;;;;;;;0.20;0.10;;;;;;;;;;4968253;28;20054;-81
2024/02/25 07:07:00;;;;;;;0.20;0.10;;;;;;;;;;4986949;28;20457;-81
2024/02/25 07:09:29;;;;;;;0.20;0.00;;;;;;;;;;4987531;28;20053;-83
2024/02/25 07:11:55;;;;;;;0.20;0.10;;;;;;;;;;4988167;28;20039;-82
2024/02/25 07:14:21;;;;;;;0.20;0.10;;;;;;;;;;4986450;28;20049;-81
2024/02/25 07:16:47;;;;;;;0.20;0.00;;;;;;;;;;4978140;28;20506;-80
2024/02/25 07:19:13;;;;;;;0.20;0.00;;;;;;;;;;4983051;28;20414;-81
2024/02/25 07:21:39;;;;;;;0.20;0.10;;;;;;;;;;4992589;28;20042;-82
2024/02/25 07:24:05;;;;;;;0.20;0.10;;;;;;;;;;4984895;28;20038;-80
2024/02/25 07:26:32;;;;;;;0.20;0.10;;;;;;;;;;4988133;28;20049;-80
2024/02/25 07:29:01;;;;;;;0.20;0.20;;;;;;;;;;5005019;23;20070;-80
2024/02/25 07:31:27;;;;;;;0.20;0.10;;;;;;;;;;4977152;28;20545;-80
2024/02/25 07:33:54;;;;;;;0.20;0.10;;;;;;;;;;4985170;28;20039;-81
2024/02/25 07:36:20;;;;;;;0.20;0.10;;;;;;;;;;5001403;28;20245;-81
2024/02/25 07:38:46;;;;;;;0.20;0.10;;;;;;;;;;5004979;28;20110;-81
2024/02/25 07:41:12;;;;;;;0.20;0.10;;;;;;;;;;5008104;28;20048;-82
2024/02/25 07:43:39;;;;;;;0.20;0.10;;;;;;;;;;5006982;28;20045;-82
2024/02/25 07:46:05;;;;;;;0.20;0.10;;;;;;;;;;5023705;28;20057;-80
2024/02/25 07:48:32;;;;;;;0.20;0.10;;;;;;;;;;4989376;28;20089;-80
2024/02/25 07:50:58;;;;;;;0.20;0.10;;;;;;;;;;5007294;28;20042;-80
2024/02/25 07:53:24;;;;;;;0.20;0.10;;;;;;;;;;5024592;28;20053;-80
2024/02/25 07:55:50;;;;;;;0.20;0.10;;;;;;;;;;5017569;28;21234;-81
2024/02/25 07:58:16;;;;;;;0.20;0.10;;;;;;;;;;4983621;28;20493;-81
2024/02/25 08:00:43;;;;;;;0.20;0.00;;;;;;;;;;5020592;28;20350;-80
2024/02/25 08:03:09;;;;;;;0.20;0.10;;;;;;;;;;5003934;28;20078;-81
2024/02/25 08:05:35;;;;;;;0.20;0.10;;;;;;;;;;5023412;28;20038;-82
2024/02/25 08:08:01;;;;;;;0.20;0.10;;;;;;;;;;4993584;28;20098;-82
2024/02/25 08:10:27;;;;;;;0.20;0.10;;;;;;;;;;5001896;28;20064;-81
2024/02/25 08:12:55;;;;;;;0.20;0.10;;;;;;;;;;5018566;28;20045;-83
2024/02/25 08:15:21;;;;;;;0.20;0.00;;;;;;;;;;4999296;28;20430;-81
2024/02/25 08:17:47;;;;;;;0.20;0.10;;;;;;;;;;4985428;28;20466;-82
2024/02/25 08:20:13;;;;;;;0.20;0.10;;;;;;;;;;4984346;28;20096;-81
2024/02/25 08:22:39;;;;;;;0.20;0.08;;;;;;;;;;5022637;28;20177;-82
2024/02/25 08:25:06;;;;;;;0.20;0.15;;;;;;;;;;5002263;28;20045;-82
2024/02/25 08:27:32;;;;;;;0.20;0.03;;;;;;;;;;4990399;28;20042;-82
2024/02/25 08:29:59;;;;;;;0.30;0.20;;;;;;;;;;5002374;28;20045;-81
2024/02/25 08:32:25;;;;;;;0.20;0.10;;;;;;;;;;5020980;28;20512;-80
2024/02/25 08:34:55;;;;;;;0.20;0.10;;;;;;;;;;5023541;28;20093;-81
2024/02/25 08:37:21;;;;;;;0.20;0.00;;;;;;;;;;5037541;28;20025;-82
2024/02/25 08:39:49;;;;;;;0.20;0.00;;;;;;;;;;5019227;28;20124;-81
2024/02/25 08:42:15;;;;;;;0.20;0.10;;;;;;;;;;5026613;28;20231;-80
2024/02/25 08:44:41;;;;;;;0.20;0.10;;;;;;;;;;5039908;28;20045;-83
2024/02/25 08:47:07;;;;;;;0.20;0.10;;;;;;;;;;5024114;28;20042;-82
2024/02/25 08:49:33;;;;;;;0.20;0.00;;;;;;;;;;5031603;28;20053;-81
2024/02/25 08:51:59;;;;;;;0.20;0.10;;;;;;;;;;5021215;28;20494;-81
2024/02/25 08:54:25;;;;;;;0.20;0.10;;;;;;;;;;5018409;28;20034;-81
2024/02/25 08:56:51;;;;;;;0.20;0.10;;;;;;;;;;4999807;28;20029;-80
2024/02/25 08:59:17;;;;;;;0.20;0.10;;;;;;;;;;5004473;28;20045;-81
2024/02/25 09:01:43;;;;;;;0.20;0.10;;;;;;;;;;5021709;28;20308;-82
2024/02/25 09:04:10;;;;;;;0.20;0.20;;;;;;;;;;5031872;28;20048;-81
2024/02/25 09:06:36;;;;;;;0.20;0.00;;;;;;;;;;5018394;28;20073;-81
2024/02/25 09:09:02;;;;;;;0.20;0.10;;;;;;;;;;5004005;28;20044;-79
2024/02/25 09:11:28;;;;;;;0.20;0.10;;;;;;;;;;5018127;28;20045;-82
2024/02/25 09:13:54;;;;;;;0.30;0.20;;;;;;;;;;5018396;28;20057;-81
2024/02/25 09:16:21;;;;;;;0.20;0.10;;;;;;;;;;5003245;28;20037;-82
2024/02/25 09:18:48;;;;;;;0.20;0.00;;;;;;;;;;5013342;28;20395;-81
2024/02/25 09:21:14;;;;;;;0.20;0.03;;;;;;;;;;5014527;28;20068;-80
2024/02/25 09:23:42;;;;;;;0.20;0.10;;;;;;;;;;5002294;28;20045;-79
2024/02/25 09:26:08;;;;;;;0.20;0.10;;;;;;;;;;5016840;28;20444;-81
2024/02/25 09:28:34;;;;;;;0.20;0.10;;;;;;;;;;5031129;28;20145;-82
2024/02/25 09:31:01;;;;;;;0.20;0.00;;;;;;;;;;5013721;28;20029;-83
2024/02/25 09:33:29;;;;;;;0.20;0.10;;;;;;;;;;5031423;28;20041;-80
2024/02/25 09:35:56;;;;;;;0.20;0.10;;;;;;;;;;5019500;28;20049;-82
2024/02/25 09:38:22;;;;;;;0.20;0.10;;;;;;;;;;5025644;28;20041;-82
2024/02/25 09:40:52;;;;;;;0.20;0.10;;;;;;;;;;5002341;28;20042;-80
2024/02/25 09:43:18;;;;;;;0.20;0.08;;;;;;;;;;5031711;28;20064;-81
2024/02/25 09:45:48;;;;;;;0.25;0.25;;;;;;;;;;5027845;28;20037;-81
2024/02/25 09:48:14;;;;;;;0.20;0.10;;;;;;;;;;5042875;28;20042;-82
2024/02/25 09:50:41;;;;;;;0.35;0.35;;;;;;;;;;5015769;28;20051;-81
2024/02/25 09:53:07;;;;;;;0.20;0.00;;;;;;;;;;5034800;28;20512;-82
2024/02/25 09:55:33;;;;;;;0.20;0.00;;;;;;;;;;5022605;28;20131;-81
2024/02/25 09:57:59;;;;;;;0.20;0.10;;;;;;;;;;5010470;28;20045;-83
2024/02/25 10:00:25;;;;;;;0.20;0.10;;;;;;;;;;5037973;28;20038;-80
2024/02/25 10:02:51;;;;;;;0.20;0.10;;;;;;;;;;5005946;28;20029;-80
2024/02/25 10:05:19;;;;;;;0.20;0.00;;;;;;;;;;5017093;28;20103;-81
2024/02/25 10:07:45;;;;;;;0.20;0.03;;;;;;;;;;5003755;28;20060;-81
2024/02/25 10:10:12;;;;;;;0.20;0.10;;;;;;;;;;5005888;28;20030;-82
2024/02/25 10:12:41;;;;;;;0.20;0.10;;;;;;;;;;5035351;28;20121;-81
2024/02/25 10:15:08;;;;;;;0.20;0.05;;;;;;;;;;5035926;28;20045;-81
2024/02/25 10:17:36;;;;;;;0.20;0.10;;;;;;;;;;5039980;28;20053;-81
2024/02/25 10:20:06;;;;;;;0.20;0.00;;;;;;;;;;5023252;28;20045;-82
2024/02/25 10:22:33;;;;;;;0.20;0.10;;;;;;;;;;5017595;28;20068;-80
2024/02/25 10:25:07;;;;;;;0.20;0.13;;;;;;;;;;5012364;28;20406;-82
2024/02/25 10:27:33;;;;;;;0.20;0.00;;;;;;;;;;5017177;28;20041;-83
2024/02/25 10:30:01;;;;;;;0.20;0.10;;;;;;;;;;5020518;28;20042;-80
2024/02/25 10:32:30;;;;;;;0.20;0.10;;;;;;;;;;5017032;28;20037;-81
2024/02/25 10:34:57;;;;;;;0.20;0.00;;;;;;;;;;5015816;28;20045;-81
2024/02/25 10:37:25;;;;;;;0.20;0.10;;;;;;;;;;5005290;28;20040;-81
2024/02/25 10:39:55;;;;;;;0.20;0.10;;;;;;;;;;5017491;28;20037;-81
2024/02/25 10:42:23;;;;;;;0.20;0.10;;;;;;;;;;5021389;28;20071;-81
2024/02/25 10:44:50;;;;;;;0.20;0.10;;;;;;;;;;5029668;28;20049;-81
2024/02/25 10:47:18;;;;;;;0.20;0.20;;;;;;;;;;5000109;28;20566;-81
2024/02/25 10:49:45;;;;;;;0.20;0.10;;;;;;;;;;4998710;28;20075;-80
2024/02/25 10:52:12;;;;;;;0.20;0.10;;;;;;;;;;5012692;28;20045;-80
2024/02/25 10:54:39;;;;;;;0.20;0.08;;;;;;;;;;5004115;28;20045;-82
2024/02/25 10:57:07;;;;;;;0.20;0.10;;;;;;;;;;5014213;28;20144;-82
2024/02/25 10:59:34;;;;;;;0.20;0.10;;;;;;;;;;5018933;28;20132;-84
2024/02/25 11:02:00;;;;;;;0.20;0.00;;;;;;;;;;5032330;28;20524;-80
2024/02/25 11:04:27;;;;;;;0.20;0.10;;;;;;;;;;5001251;28;20037;-81
2024/02/25 11:06:55;;;;;;;0.20;0.10;;;;;;;;;;5028456;28;20065;-82
2024/02/25 11:09:22;;;;;;;0.20;0.10;;;;;;;;;;5004142;28;20517;-80
2024/02/25 11:11:49;;;;;;;0.20;0.08;;;;;;;;;;5036823;28;20048;-80
2024/02/25 11:14:21;;;;;;;0.20;0.10;;;;;;;;;;5004882;28;20044;-82
2024/02/25 11:16:49;;;;;;;;;;;;;;;;;;5035041;28;20037;-79
2024/02/25 11:19:21;;;;;;;0.20;0.05;;;;;;;;;;4996970;28;19920;-82
2024/02/25 11:21:47;;;;;;;;;;;;;;;;;;5006476;28;20049;-86
2024/02/25 11:24:13;;;;;;;0.20;0.15;;;;;;;;;;5030704;28;19917;-82
2024/02/25 11:26:40;;;;;;;0.20;0.10;;;;;;;;;;5014994;28;20057;-81
2024/02/25 11:29:14;;;;;;;0.20;0.10;;;;;;;;;;5020540;28;20048;-83
2024/02/25 11:31:52;;;;;;;0.20;0.10;;;;;;;;;;5001128;28;20041;-81
2024/02/25 11:34:22;;;;;;;0.20;0.10;;;;;;;;;;5019540;28;20026;-81
2024/02/25 11:36:51;;;;;;;0.20;0.10;;;;;;;;;;5022837;28;20040;-83
2024/02/25 11:39:18;;;;;;;0.20;0.00;;;;;;;;;;5021453;28;20698;-81
2024/02/25 11:41:44;;;;;;;0.20;0.00;;;;;;;;;;5022534;28;20408;-82
2024/02/25 11:44:10;;;;;;;0.20;0.10;;;;;;;;;;5022907;28;20053;-81
2024/02/25 11:46:37;;;;;;;0.32;0.32;;;;;;;;;;5024431;28;20033;-81
2024/02/25 11:49:03;;;;;;;0.20;0.10;;;;;;;;;;5039692;28;20042;-82
2024/02/25 11:51:29;;;;;;;0.22;0.13;;;;;;;;;;5020157;28;20089;-80
2024/02/25 11:53:55;;;;;;;0.20;0.10;;;;;;;;;;5014868;28;20064;-82
2024/02/25 11:56:21;;;;;;;0.20;0.10;;;;;;;;;;5005822;28;20097;-81
2024/02/25 11:58:47;;;;;;;0.20;0.10;;;;;;;;;;5040192;28;20084;-81
2024/02/25 12:01:14;;;;;;;0.50;0.30;;;;;;;;;;5000025;28;20069;-80
2024/02/25 12:03:43;;;;;;;0.20;0.10;;;;;;;;;;5014793;28;20040;-82
2024/02/25 12:06:10;;;;;;;0.20;0.10;;;;;;;;;;5022919;28;20072;-81
2024/02/25 12:08:36;;;;;;;0.20;0.10;;;;;;;;;;5024494;28;20052;-82
2024/02/25 12:11:02;;;;;;;0.20;0.10;;;;;;;;;;5056509;28;20049;-82
2024/02/25 12:13:29;;;;;;;0.20;0.10;;;;;;;;;;5015455;28;20092;-82
2024/02/25 12:15:55;;;;;;;0.20;0.10;;;;;;;;;;5004634;28;20093;-81
2024/02/25 12:18:21;;;;;;;0.20;0.00;;;;;;;;;;5030063;28;20044;-82
2024/02/25 12:20:47;;;;;;;0.20;0.10;;;;;;;;;;5025719;28;21801;-81
2024/02/25 12:23:14;;;;;;;0.20;0.10;;;;;;;;;;5045843;28;20036;-80
2024/02/25 12:25:40;;;;;;;0.20;0.10;;;;;;;;;;5035189;28;20061;-82
2024/02/25 12:28:11;;;;;;;0.20;0.10;;;;;;;;;;5017899;28;20065;-82
2024/02/25 12:30:38;;;;;;;0.20;0.10;;;;;;;;;;5034422;28;20049;-83
2024/02/25 12:33:09;;;;;;;0.20;0.00;;;;;;;;;;4999767;28;20033;-81
2024/02/25 12:35:36;;;;;;;0.20;0.03;;;;;;;;;;5025291;28;21219;-82
2024/02/25 12:38:03;;;;;;;0.20;0.00;;;;;;;;;;5029005;28;20041;-82
2024/02/25 12:40:33;;;;;;;0.20;0.10;;;;;;;;;;5037449;28;20125;-83
2024/02/25 12:43:00;;;;;;;0.28;0.28;;;;;;;;;;5022656;28;20755;-82
2024/02/25 12:45:28;;;;;;;0.20;0.10;;;;;;;;;;5022268;28;20069;-83
2024/02/25 12:47:55;;;;;;;0.28;0.22;;;;;;;;;;5027659;28;20045;-80
2024/02/25 12:50:21;;;;;;;0.20;0.00;;;;;;;;;;5022371;28;20048;-81
2024/02/25 12:52:48;;;;;;;0.20;0.00;;;;;;;;;;5024485;28;20075;-81
2024/02/25 12:55:14;;;;;;;0.20;0.00;;;;;;;;;;5024581;28;20037;-82
2024/02/25 12:57:40;;;;;;;0.20;0.10;;;;;;;;;;5021012;28;20029;-80
2024/02/25 13:00:07;;;;;;;0.20;0.00;;;;;;;;;;5003515;28;20042;-81
2024/02/25 13:02:33;;;;;;;0.20;0.10;;;;;;;;;;5006845;28;20041;-81
2024/02/25 13:04:59;;;;;;;0.40;0.15;;;;;;;;;;5004287;28;20049;-82
2024/02/25 13:07:26;;;;;;;0.40;0.30;;;;;;;;;;5001241;28;20041;-81
2024/02/25 13:09:52;;;;;;;0.32;0.13;;;;;;;;;;5041847;28;20040;-81
2024/02/25 13:12:18;;;;;;;0.20;0.10;;;;;;;;;;5022417;28;20513;-81
2024/02/25 13:14:44;;;;;;;0.20;0.10;;;;;;;;;;5042543;28;20029;-82
2024/02/25 13:17:12;;;;;;;0.20;0.10;;;;;;;;;;5034604;28;20101;-82
2024/02/25 13:19:38;;;;;;;0.20;0.00;;;;;;;;;;5001404;28;20523;-82
2024/02/25 13:22:04;;;;;;;0.20;0.10;;;;;;;;;;5043487;28;20041;-82
2024/02/25 13:24:30;;;;;;;0.20;0.10;;;;;;;;;;4997227;28;20037;-81
2024/02/25 13:26:56;;;;;;;0.20;0.10;;;;;;;;;;5023247;28;20045;-84
2024/02/25 13:29:22;;;;;;;0.20;0.10;;;;;;;;;;5011790;28;20072;-80
2024/02/25 13:31:49;;;;;;;0.20;0.10;;;;;;;;;;4993818;28;20033;-82
2024/02/25 13:34:15;;;;;;;0.20;0.00;;;;;;;;;;4994423;28;20497;-82
2024/02/25 13:36:42;;;;;;;0.20;0.00;;;;;;;;;;5007894;28;20116;-81
2024/02/25 13:39:08;;;;;;;0.20;0.10;;;;;;;;;;5025002;28;20045;-81
2024/02/25 13:41:34;;;;;;;0.20;0.00;;;;;;;;;;5012477;28;20033;-81
2024/02/25 13:44:00;;;;;;;0.20;0.10;;;;;;;;;;5004589;28;20042;-80
2024/02/25 13:46:27;;;;;;;0.35;0.10;;;;;;;;;;5007089;28;20029;-81
2024/02/25 13:48:53;;;;;;;0.20;0.10;;;;;;;;;;5011607;28;20051;-83
2024/02/25 13:51:21;;;;;;;0.30;0.20;;;;;;;;;;5040735;28;20501;-80
2024/02/25 13:53:47;;;;;;;0.20;0.10;;;;;;;;;;5010360;28;20044;-81
2024/02/25 13:56:14;;;;;;;0.20;0.10;;;;;;;;;;5011519;28;20569;-82
2024/02/25 13:58:41;;;;;;;0.20;0.10;;;;;;;;;;5005402;28;20040;-82
2024/02/25 14:01:07;;;;;;;0.65;0.43;;;;;;;;;;5007658;28;20044;-81
2024/02/25 14:03:33;;;;;;;0.20;0.00;;;;;;;;;;4994110;28;20045;-80
2024/02/25 14:05:59;;;;;;;0.20;0.00;;;;;;;;;;4992294;28;20072;-81
2024/02/25 14:08:25;;;;;;;0.20;0.10;;;;;;;;;;5007070;28;20034;-80
2024/02/25 14:10:51;;;;;;;0.20;0.00;;;;;;;;;;5009368;28;20095;-82
2024/02/25 14:13:17;;;;;;;0.20;0.10;;;;;;;;;;5010566;28;20448;-81
2024/02/25 14:15:44;;;;;;;0.35;0.30;;;;;;;;;;5009148;28;20060;-81
2024/02/25 14:18:11;;;;;;;0.20;0.00;;;;;;;;;;5013956;28;20425;-81
2024/02/25 14:20:37;;;;;;;0.20;0.00;;;;;;;;;;5008892;28;20033;-80
2024/02/25 14:23:07;;;;;;;0.20;0.00;;;;;;;;;;4991790;28;20040;-80
2024/02/25 14:25:33;;;;;;;0.20;0.00;;;;;;;;;;5006210;28;20272;-82
2024/02/25 14:27:59;;;;;;;0.20;0.00;;;;;;;;;;5009874;28;20048;-81
2024/02/25 14:30:25;;;;;;;0.30;0.20;;;;;;;;;;5008967;28;20044;-81
2024/02/25 14:32:51;;;;;;;0.20;0.10;;;;;;;;;;5008910;28;20037;-81
2024/02/25 14:35:17;;;;;;;0.20;0.00;;;;;;;;;;5009304;28;20114;-81
2024/02/25 14:37:43;;;;;;;0.38;0.25;;;;;;;;;;5005657;28;20037;-81
2024/02/25 14:40:09;;;;;;;0.20;0.00;;;;;;;;;;5012716;28;20037;-81